Time;durP1;ratioP1;P1;durP2;ratioP2;P2;SDS_P1;SDS_P2;PMS_P1;PMS_P2;Temp;Humidity;BMP_temperature;BMP_pressure;BME280_temperature;BME280_humidity;BME280_pressure;Samples;Min_cycle;Max_cycle;Signal;HPM_P1;HPM_P2
2023/06/29 00:01:57;;;;;;;;;8.00;7.00;25.90;51.50;;;;;;111269;1243;49922;-62
2023/06/29 00:04:25;;;;;;;;;8.00;6.00;25.90;51.10;;;;;;111278;1238;49422;-62
2023/06/29 00:06:54;;;;;;;;;8.25;7.00;25.90;51.90;;;;;;111198;1238;53617;-62
2023/06/29 00:09:24;;;;;;;;;7.33;6.33;25.90;51.50;;;;;;111284;1238;45239;-62
2023/06/29 00:11:51;;;;;;;;;7.33;7.00;25.90;51.80;;;;;;111244;1240;48408;-62
2023/06/29 00:14:18;;;;;;;;;8.00;7.00;25.90;51.60;;;;;;111261;1238;49146;-61
2023/06/29 00:16:45;;;;;;;;;7.75;7.50;25.80;51.50;;;;;;111338;1243;54960;-62
2023/06/29 00:19:14;;;;;;;;;7.00;6.67;25.80;51.50;;;;;;111264;1243;44396;-61
2023/06/29 00:21:41;;;;;;;;;7.00;6.33;25.80;51.50;;;;;;111305;1242;48869;-61
2023/06/29 00:24:11;;;;;;;;;9.00;7.00;25.80;51.50;;;;;;111270;1243;48712;-61
2023/06/29 00:26:38;;;;;;;;;6.00;6.00;25.80;51.50;;;;;;111308;1238;54610;-62
2023/06/29 00:29:05;;;;;;;;;7.00;6.00;25.80;51.60;;;;;;111318;1243;44854;-62
2023/06/29 00:31:32;;;;;;;;;8.00;7.00;25.70;51.50;;;;;;111258;1243;49173;-62
2023/06/29 00:33:59;;;;;;;;;8.75;7.00;25.80;51.60;;;;;;111282;1243;49018;-63
2023/06/29 00:36:26;;;;;;;;;7.75;6.75;25.80;51.60;;;;;;111300;1243;54619;-62
2023/06/29 00:38:53;;;;;;;;;7.75;6.75;25.80;51.60;;;;;;111255;1241;44803;-62
2023/06/29 00:41:20;;;;;;;;;7.00;6.00;25.80;51.50;;;;;;111244;1242;49078;-65
2023/06/29 00:43:47;;;;;;;;;7.25;6.25;25.80;51.70;;;;;;111227;1239;49054;-62
2023/06/29 00:46:18;;;;;;;;;8.00;7.00;25.80;51.50;;;;;;111258;1238;54727;-62
2023/06/29 00:48:45;;;;;;;;;6.00;5.33;25.70;51.50;;;;;;111220;1244;44725;-61
2023/06/29 00:51:13;;;;;;;;;7.75;7.00;25.70;51.40;;;;;;111237;1240;48553;-61
2023/06/29 00:53:42;;;;;;;;;8.00;7.00;25.70;51.40;;;;;;111251;1239;49322;-61
2023/06/29 00:56:09;;;;;;;;;7.00;6.00;25.70;51.70;;;;;;111236;1238;54211;-62
2023/06/29 00:58:36;;;;;;;;;7.50;7.00;25.70;51.40;;;;;;111274;1238;45000;-61
2023/06/29 01:01:03;;;;;;;;;6.00;5.75;25.70;51.40;;;;;;111317;1243;49365;-62
2023/06/29 01:03:31;;;;;;;;;7.67;7.33;25.70;51.40;;;;;;111259;1238;49459;-62
2023/06/29 01:06:03;;;;;;;;;8.00;7.25;25.70;51.40;;;;;;111303;1240;54122;-62
2023/06/29 01:08:35;;;;;;;;;8.75;7.75;25.70;51.40;;;;;;111270;1243;44151;-61
2023/06/29 01:11:03;;;;;;;;;6.25;6.00;25.70;51.40;;;;;;111263;1239;49708;-62
2023/06/29 01:13:31;;;;;;;;;6.75;6.00;25.70;51.30;;;;;;111189;1243;49413;-61
2023/06/29 01:15:59;;;;;;;;;7.00;6.00;25.70;51.40;;;;;;111233;1243;55512;-63
2023/06/29 01:18:28;;;;;;;;;7.00;6.75;25.60;51.30;;;;;;111267;1240;44335;-61
2023/06/29 01:20:55;;;;;;;;;7.75;6.75;25.70;51.30;;;;;;111249;1247;49057;-60
2023/06/29 01:23:25;;;;;;;;;7.50;6.75;25.60;51.50;;;;;;111277;1240;49557;-61
2023/06/29 01:25:56;;;;;;;;;8.00;7.00;25.60;51.30;;;;;;111254;1241;53883;-61
2023/06/29 01:28:23;;;;;;;;;8.25;7.00;25.60;51.40;;;;;;111273;1242;45864;-61
2023/06/29 01:30:50;;;;;;;;;8.00;7.00;25.60;51.30;;;;;;111289;1238;49450;-62
2023/06/29 01:33:19;;;;;;;;;7.75;7.50;25.60;50.90;;;;;;111252;1239;49420;-61
2023/06/29 01:35:46;;;;;;;;;7.00;7.00;25.60;51.30;;;;;;111231;1243;54516;-61
2023/06/29 01:38:25;;;;;;;;;7.75;6.75;25.60;51.40;;;;;;111370;1241;44453;-66
2023/06/29 01:40:54;;;;;;;;;7.00;6.00;25.60;51.40;;;;;;111248;1241;49090;-62
2023/06/29 01:43:22;;;;;;;;;7.00;7.00;25.50;51.30;;;;;;111274;1242;49321;-62
2023/06/29 01:45:49;;;;;;;;;7.00;5.67;25.50;51.50;;;;;;111251;1243;53665;-61
2023/06/29 01:48:17;;;;;;;;;6.25;6.25;25.50;50.90;;;;;;111244;1238;44641;-61
2023/06/29 01:50:44;;;;;;;;;9.00;6.00;25.50;51.70;;;;;;111207;1240;49048;-62
2023/06/29 01:53:11;;;;;;;;;6.50;6.00;25.50;51.50;;;;;;111302;1241;48972;-61
2023/06/29 01:55:38;;;;;;;;;7.00;6.67;25.50;51.50;;;;;;111306;1244;53387;-62
2023/06/29 01:58:05;;;;;;;;;7.00;6.00;25.50;51.40;;;;;;111323;1238;44949;-61
2023/06/29 02:00:32;;;;;;;;;7.00;7.00;25.50;51.40;;;;;;111232;1241;48504;-61
2023/06/29 02:02:59;;;;;;;;;7.75;7.00;25.50;51.50;;;;;;111215;1241;48637;-63
2023/06/29 02:05:26;;;;;;;;;7.00;6.00;25.50;51.50;;;;;;111325;1243;54059;-61
2023/06/29 02:07:53;;;;;;;;;6.25;5.25;25.50;51.50;;;;;;111201;1239;44899;-62
2023/06/29 02:10:20;;;;;;;;;7.75;6.75;25.50;51.40;;;;;;111239;1243;49310;-61
2023/06/29 02:12:47;;;;;;;;;7.25;6.75;25.50;51.40;;;;;;111261;1244;48617;-62
2023/06/29 02:15:14;;;;;;;;;6.25;6.00;25.50;51.60;;;;;;111244;1243;53756;-60
2023/06/29 02:17:41;;;;;;;;;7.25;7.00;25.40;51.30;;;;;;111270;1238;44842;-61
2023/06/29 02:20:11;;;;;;;;;8.00;7.00;25.50;51.60;;;;;;111230;1242;48877;-62
2023/06/29 02:22:38;;;;;;;;;8.00;7.00;25.40;51.30;;;;;;111281;1238;48911;-62
2023/06/29 02:25:07;;;;;;;;;6.50;6.00;25.40;51.50;;;;;;111320;1238;53835;-62
2023/06/29 02:27:34;;;;;;;;;7.25;6.25;25.40;51.60;;;;;;111252;1243;45198;-61
2023/06/29 02:30:01;;;;;;;;;7.00;6.67;25.40;51.90;;;;;;111278;1238;49411;-62
2023/06/29 02:32:28;;;;;;;;;10.00;8.33;25.40;51.40;;;;;;111279;1238;48686;-62
2023/06/29 02:34:54;;;;;;;;;5.75;5.00;25.40;51.40;;;;;;111309;1242;54154;-62
2023/06/29 02:37:21;;;;;;;;;7.00;6.25;25.30;51.30;;;;;;111235;1243;44441;-61
2023/06/29 02:39:48;;;;;;;;;9.67;7.67;25.40;51.40;;;;;;111267;1239;49351;-62
2023/06/29 02:42:15;;;;;;;;;7.00;6.00;25.40;51.40;;;;;;111253;1239;49163;-61
2023/06/29 02:44:42;;;;;;;;;6.00;5.00;25.30;51.50;;;;;;111273;1243;54459;-62
2023/06/29 02:47:10;;;;;;;;;7.75;6.75;25.30;51.30;;;;;;111251;1243;44695;-61
2023/06/29 02:49:37;;;;;;;;;7.50;6.50;25.30;51.40;;;;;;111312;1244;49042;-61
2023/06/29 02:52:04;;;;;;;;;6.75;5.75;25.30;52.00;;;;;;111269;1238;48691;-62
2023/06/29 02:54:31;;;;;;;;;5.00;4.00;25.30;51.40;;;;;;111299;1243;53994;-62
2023/06/29 02:56:58;;;;;;;;;7.00;7.00;25.30;51.40;;;;;;111327;1242;44825;-62
2023/06/29 02:59:25;;;;;;;;;6.00;5.25;25.30;51.40;;;;;;111308;1238;48394;-65
2023/06/29 03:01:52;;;;;;;;;8.25;7.25;25.30;51.70;;;;;;111272;1238;49019;-62
2023/06/29 03:04:19;;;;;;;;;6.00;5.25;25.30;51.00;;;;;;111238;1239;54071;-61
2023/06/29 03:06:46;;;;;;;;;8.00;7.25;25.20;51.30;;;;;;111212;1244;45909;-61
2023/06/29 03:09:13;;;;;;;;;6.00;6.00;25.20;51.30;;;;;;111252;1242;48484;-62
2023/06/29 03:11:40;;;;;;;;;5.67;5.33;25.20;51.50;;;;;;111237;1238;49303;-62
2023/06/29 03:14:07;;;;;;;;;6.00;5.00;25.20;51.50;;;;;;111245;1238;54180;-61
2023/06/29 03:16:34;;;;;;;;;6.25;6.25;25.20;51.50;;;;;;111254;1243;45840;-62
2023/06/29 03:19:01;;;;;;;;;6.33;6.00;25.20;51.30;;;;;;111253;1242;48825;-61
2023/06/29 03:21:28;;;;;;;;;8.00;6.25;25.20;51.30;;;;;;111220;1238;49561;-61
2023/06/29 03:23:54;;;;;;;;;8.33;7.00;25.20;51.30;;;;;;111283;1239;54818;-61
2023/06/29 03:26:21;;;;;;;;;7.50;7.00;25.20;51.30;;;;;;111279;1238;44527;-61
2023/06/29 03:28:48;;;;;;;;;7.00;6.50;25.20;51.30;;;;;;111323;1238;49092;-61
2023/06/29 03:31:15;;;;;;;;;8.00;7.75;25.20;51.30;;;;;;111289;1243;49405;-64
2023/06/29 03:33:43;;;;;;;;;6.00;6.00;25.20;50.80;;;;;;111227;1241;53982;-61
2023/06/29 03:36:13;;;;;;;;;8.00;7.50;25.20;51.30;;;;;;111333;1244;45074;-60
2023/06/29 03:38:41;;;;;;;;;8.00;7.00;25.20;51.30;;;;;;111306;1243;49130;-61
2023/06/29 03:41:08;;;;;;;;;7.33;6.67;25.20;51.30;;;;;;111237;1242;48639;-61
2023/06/29 03:43:34;;;;;;;;;6.75;6.50;25.20;51.50;;;;;;111336;1238;53723;-61
2023/06/29 03:46:01;;;;;;;;;7.00;6.00;25.20;51.30;;;;;;111290;1243;45036;-62
2023/06/29 03:48:28;;;;;;;;;8.00;7.00;25.10;51.20;;;;;;111277;1243;49819;-62
2023/06/29 03:50:57;;;;;;;;;5.75;5.75;25.20;51.30;;;;;;111267;1244;49990;-62
2023/06/29 03:53:23;;;;;;;;;6.75;6.75;25.10;51.20;;;;;;111246;1239;53125;-62
2023/06/29 03:55:50;;;;;;;;;7.00;6.33;25.10;51.50;;;;;;111302;1240;45026;-62
2023/06/29 03:58:17;;;;;;;;;7.00;7.00;25.10;51.30;;;;;;111299;1240;48942;-61
2023/06/29 04:00:44;;;;;;;;;7.50;6.00;25.10;51.20;;;;;;111277;1240;50894;-61
2023/06/29 04:03:11;;;;;;;;;7.50;6.00;25.10;51.30;;;;;;111266;1244;53362;-61
2023/06/29 04:05:38;;;;;;;;;7.67;6.67;25.10;51.40;;;;;;111254;1241;44674;-62
2023/06/29 04:08:05;;;;;;;;;7.00;6.00;25.10;51.50;;;;;;111243;1243;48384;-62
2023/06/29 04:10:33;;;;;;;;;7.00;5.50;25.10;51.50;;;;;;111269;1241;48581;-62
2023/06/29 04:13:00;;;;;;;;;6.33;5.33;25.10;51.20;;;;;;111292;1240;53593;-62
2023/06/29 04:15:27;;;;;;;;;6.75;6.75;25.10;51.20;;;;;;111274;1238;44514;-62
2023/06/29 04:17:54;;;;;;;;;8.67;8.00;25.10;51.30;;;;;;111258;1238;49212;-62
2023/06/29 04:20:21;;;;;;;;;6.00;5.75;25.10;51.20;;;;;;111294;1238;49896;-65
2023/06/29 04:22:48;;;;;;;;;6.00;5.33;25.10;51.20;;;;;;111248;1242;54067;-62
2023/06/29 04:25:15;;;;;;;;;8.00;7.00;25.10;51.20;;;;;;111290;1243;45054;-62
2023/06/29 04:27:42;;;;;;;;;6.67;6.00;25.10;51.40;;;;;;111239;1242;48363;-62
2023/06/29 04:30:11;;;;;;;;;6.00;5.25;25.10;51.20;;;;;;111219;1239;49548;-62
2023/06/29 04:32:38;;;;;;;;;6.00;5.00;25.10;51.20;;;;;;111312;1244;54312;-61
2023/06/29 04:35:09;;;;;;;;;6.00;5.50;25.00;51.20;;;;;;111288;1241;44846;-62
2023/06/29 04:37:40;;;;;;;;;7.33;6.67;25.00;51.20;;;;;;111277;1239;49999;-62
2023/06/29 04:40:09;;;;;;;;;8.00;7.00;25.00;51.10;;;;;;111267;1243;49251;-61
2023/06/29 04:42:48;;;;;;;;;7.00;6.50;25.00;51.20;;;;;;111255;1244;53648;-63
2023/06/29 04:45:19;;;;;;;;;6.00;5.33;25.00;51.20;;;;;;111294;1238;44636;-62
2023/06/29 04:47:49;;;;;;;;;7.75;7.75;25.00;51.60;;;;;;111243;1238;49105;-63
2023/06/29 04:50:24;;;;;;;;;5.25;5.00;25.00;51.30;;;;;;111256;1238;49316;-62
2023/06/29 04:52:53;;;;;;;;;7.00;7.00;25.00;51.10;;;;;;111259;1243;53403;-62
2023/06/29 04:55:20;;;;;;;;;7.00;6.00;25.00;51.10;;;;;;111302;1238;45654;-61
2023/06/29 04:57:47;;;;;;;;;6.67;6.67;25.00;51.10;;;;;;111226;1238;49058;-61
2023/06/29 05:00:15;;;;;;;;;7.00;7.00;25.00;51.30;;;;;;111333;1238;49328;-62
2023/06/29 05:02:42;;;;;;;;;8.00;7.00;25.00;51.10;;;;;;111277;1242;53333;-61
2023/06/29 05:05:10;;;;;;;;;6.00;5.33;25.00;50.70;;;;;;111303;1238;44415;-62
2023/06/29 05:07:41;;;;;;;;;6.00;5.25;25.00;51.20;;;;;;111310;1238;48823;-62
2023/06/29 05:10:08;;;;;;;;;7.00;7.00;25.00;51.20;;;;;;111275;1243;49274;-62
2023/06/29 05:12:35;;;;;;;;;7.00;6.00;25.00;51.40;;;;;;111310;1238;53127;-63
2023/06/29 05:15:03;;;;;;;;;8.00;7.00;25.00;51.20;;;;;;111306;1240;45332;-62
2023/06/29 05:17:30;;;;;;;;;6.33;5.67;24.90;51.20;;;;;;111303;1243;49131;-62
2023/06/29 05:19:58;;;;;;;;;7.00;6.00;24.90;51.20;;;;;;111266;1243;48974;-62
2023/06/29 05:22:24;;;;;;;;;7.25;7.00;24.90;51.20;;;;;;111248;1241;53868;-61
2023/06/29 05:24:51;;;;;;;;;6.75;6.00;24.90;51.20;;;;;;111269;1243;44891;-60
2023/06/29 05:27:18;;;;;;;;;6.75;6.00;24.90;51.20;;;;;;111303;1238;48424;-62
2023/06/29 05:29:45;;;;;;;;;6.75;6.00;24.90;51.20;;;;;;111234;1243;49115;-61
2023/06/29 05:32:12;;;;;;;;;6.75;6.00;24.90;50.80;;;;;;111244;1247;53708;-62
2023/06/29 05:34:39;;;;;;;;;7.00;6.50;24.90;51.30;;;;;;111271;1241;44916;-62
2023/06/29 05:37:06;;;;;;;;;6.50;5.75;24.90;51.30;;;;;;111308;1243;48852;-63
2023/06/29 05:39:33;;;;;;;;;8.00;7.25;24.90;51.30;;;;;;111319;1243;50328;-62
2023/06/29 05:42:00;;;;;;;;;6.33;5.33;24.90;51.30;;;;;;111244;1243;53829;-62
2023/06/29 05:44:27;;;;;;;;;7.00;6.00;24.90;51.30;;;;;;111284;1241;44745;-62
2023/06/29 05:46:53;;;;;;;;;6.00;5.25;24.90;51.50;;;;;;111231;1243;48963;-63
2023/06/29 05:49:21;;;;;;;;;7.67;6.67;24.90;51.40;;;;;;111240;1243;49301;-61
2023/06/29 05:51:48;;;;;;;;;6.75;6.00;24.90;51.30;;;;;;111356;1243;54354;-62
2023/06/29 05:54:15;;;;;;;;;7.00;6.00;24.90;51.30;;;;;;111231;1243;46284;-62
2023/06/29 05:56:42;;;;;;;;;6.00;6.00;24.90;51.30;;;;;;111238;1247;49828;-62
2023/06/29 05:59:09;;;;;;;;;7.00;6.00;24.90;51.30;;;;;;111216;1243;49655;-62
2023/06/29 06:01:38;;;;;;;;;5.33;5.00;24.90;51.30;;;;;;111206;1243;53083;-62
2023/06/29 06:04:05;;;;;;;;;7.00;6.00;24.90;51.30;;;;;;111278;1238;44463;-62
2023/06/29 06:06:33;;;;;;;;;6.00;5.33;24.90;51.30;;;;;;111250;1239;50010;-63
2023/06/29 06:08:59;;;;;;;;;8.00;7.00;24.90;51.30;;;;;;111268;1243;48419;-62
2023/06/29 06:11:26;;;;;;;;;8.00;6.75;24.90;51.30;;;;;;111324;1243;53783;-61
2023/06/29 06:13:54;;;;;;;;;6.00;5.00;24.90;51.30;;;;;;111230;1240;44941;-62
2023/06/29 06:16:21;;;;;;;;;6.75;6.75;24.90;51.30;;;;;;111345;1243;49525;-62
2023/06/29 06:18:48;;;;;;;;;7.00;6.00;24.90;50.90;;;;;;111238;1238;49542;-62
2023/06/29 06:21:15;;;;;;;;;7.00;6.00;24.90;51.30;;;;;;111467;1242;54314;-62
2023/06/29 06:23:42;;;;;;;;;6.75;6.00;24.90;51.40;;;;;;111511;1238;44931;-64
2023/06/29 06:26:09;;;;;;;;;7.25;6.25;24.90;51.40;;;;;;111484;1238;48816;-62
2023/06/29 06:28:36;;;;;;;;;7.25;6.75;24.90;51.00;;;;;;111450;1237;48551;-62
2023/06/29 06:31:03;;;;;;;;;6.00;6.00;25.00;51.60;;;;;;111481;1237;54091;-62
2023/06/29 06:33:32;;;;;;;;;8.00;7.00;25.00;51.40;;;;;;111541;1237;45681;-62
2023/06/29 06:36:00;;;;;;;;;6.00;5.00;25.00;51.40;;;;;;111547;1238;49389;-63
2023/06/29 06:38:27;;;;;;;;;7.33;6.67;25.00;51.40;;;;;;111464;1237;49047;-62
2023/06/29 06:40:54;;;;;;;;;6.00;5.00;25.00;51.40;;;;;;111541;1243;54064;-62
2023/06/29 06:43:21;;;;;;;;;7.00;6.25;25.00;51.40;;;;;;111492;1239;44527;-61
2023/06/29 06:45:48;;;;;;;;;8.00;7.00;25.00;51.40;;;;;;111391;1244;49319;-62
2023/06/29 06:48:15;;;;;;;;;6.67;5.67;25.00;51.40;;;;;;111434;1243;48536;-62
2023/06/29 06:50:42;;;;;;;;;6.00;5.00;25.00;51.90;;;;;;111523;1242;53321;-62
2023/06/29 06:53:09;;;;;;;;;6.75;5.75;25.00;51.40;;;;;;111479;1238;44849;-62
2023/06/29 06:55:36;;;;;;;;;7.00;6.00;25.00;51.60;;;;;;111473;1242;48510;-62
2023/06/29 06:58:03;;;;;;;;;6.67;5.67;25.00;51.40;;;;;;111508;1238;49269;-62
2023/06/29 07:00:30;;;;;;;;;6.75;5.25;25.00;51.60;;;;;;111468;1242;53897;-62
2023/06/29 07:02:57;;;;;;;;;6.50;6.25;25.10;51.40;;;;;;111467;1243;44715;-61
2023/06/29 07:05:25;;;;;;;;;5.50;5.00;25.10;51.40;;;;;;111444;1244;48509;-60
2023/06/29 07:07:53;;;;;;;;;6.25;6.00;25.10;51.40;;;;;;111429;1238;48628;-62
2023/06/29 07:10:20;;;;;;;;;6.00;5.00;25.10;51.60;;;;;;111483;1243;53964;-63
2023/06/29 07:12:47;;;;;;;;;7.00;6.00;25.20;51.40;;;;;;111488;1243;44362;-61
2023/06/29 07:15:15;;;;;;;;;5.75;5.00;25.20;51.40;;;;;;111571;1242;48319;-64
2023/06/29 07:17:42;;;;;;;;;6.00;6.00;25.20;51.40;;;;;;111299;1243;48744;-62
2023/06/29 07:20:11;;;;;;;;;6.00;6.00;25.20;51.30;;;;;;111467;1242;54431;-62
2023/06/29 07:22:38;;;;;;;;;6.75;6.25;25.20;51.30;;;;;;111496;1242;45115;-61
2023/06/29 07:25:07;;;;;;;;;5.75;5.00;25.20;51.30;;;;;;111508;1237;49257;-61
2023/06/29 07:27:34;;;;;;;;;6.00;6.00;25.30;51.30;;;;;;111516;1237;48900;-62
2023/06/29 07:30:01;;;;;;;;;5.00;4.00;25.30;51.50;;;;;;111513;1237;54034;-61
2023/06/29 07:32:28;;;;;;;;;6.75;5.75;25.30;51.20;;;;;;111403;1238;44497;-63
2023/06/29 07:34:55;;;;;;;;;6.33;5.33;25.40;51.30;;;;;;111567;1238;48536;-61
2023/06/29 07:37:23;;;;;;;;;5.00;4.00;25.30;51.20;;;;;;111542;1238;49290;-61
2023/06/29 07:39:50;;;;;;;;;6.50;5.75;25.40;51.20;;;;;;111523;1242;54103;-62
2023/06/29 07:42:17;;;;;;;;;7.50;6.75;25.50;51.40;;;;;;111493;1237;45054;-63
2023/06/29 07:44:44;;;;;;;;;7.00;6.00;25.50;51.20;;;;;;111542;1241;49383;-60
2023/06/29 07:47:11;;;;;;;;;6.00;5.00;25.50;51.20;;;;;;111442;1242;49245;-62
2023/06/29 07:49:38;;;;;;;;;6.00;6.00;25.50;51.10;;;;;;111530;1237;54022;-61
2023/06/29 07:52:05;;;;;;;;;6.00;6.00;25.50;51.10;;;;;;111502;1237;44702;-60
2023/06/29 07:54:34;;;;;;;;;7.00;6.00;25.50;51.10;;;;;;111530;1239;50051;-61
2023/06/29 07:57:01;;;;;;;;;6.00;5.00;25.60;51.30;;;;;;111461;1243;50090;-62
2023/06/29 07:59:28;;;;;;;;;5.00;5.00;25.60;51.10;;;;;;111507;1239;53338;-61
2023/06/29 08:01:55;;;;;;;;;6.00;5.00;25.60;51.30;;;;;;111518;1243;44204;-61
2023/06/29 08:04:22;;;;;;;;;4.00;4.00;25.60;51.10;;;;;;111523;1243;50001;-61
2023/06/29 08:06:49;;;;;;;;;6.75;6.50;25.70;51.10;;;;;;110556;1237;1171681;-60
2023/06/29 08:09:16;;;;;;;;;7.00;6.00;25.70;51.00;;;;;;111461;1237;54763;-61
2023/06/29 08:11:43;;;;;;;;;6.00;5.00;25.70;51.00;;;;;;111548;1239;44044;-62
2023/06/29 08:14:10;;;;;;;;;5.00;5.00;25.80;51.60;;;;;;111517;1242;48359;-61
2023/06/29 08:16:37;;;;;;;;;7.75;6.50;25.80;51.00;;;;;;111457;1240;49885;-61
2023/06/29 08:19:04;;;;;;;;;6.00;5.25;25.80;51.00;;;;;;111523;1243;53883;-62
2023/06/29 08:21:31;;;;;;;;;6.00;6.00;25.80;51.00;;;;;;111416;1237;44246;-62
2023/06/29 08:23:58;;;;;;;;;5.25;4.50;25.90;51.00;;;;;;111470;1239;49304;-62
2023/06/29 08:26:25;;;;;;;;;6.00;5.00;25.90;51.00;;;;;;111531;1237;50147;-60
2023/06/29 08:28:52;;;;;;;;;6.00;5.00;25.90;51.00;;;;;;111414;1241;53656;-61
2023/06/29 08:31:19;;;;;;;;;6.00;5.00;25.90;50.50;;;;;;111457;1242;44785;-61
2023/06/29 08:33:46;;;;;;;;;5.00;4.00;25.90;50.90;;;;;;111443;1240;49637;-61
2023/06/29 08:36:13;;;;;;;;;6.00;5.00;25.90;50.90;;;;;;111533;1242;49966;-61
2023/06/29 08:38:45;;;;;;;;;6.00;5.00;25.90;50.90;;;;;;111422;1239;53788;-61
2023/06/29 08:41:13;;;;;;;;;6.00;5.33;25.90;50.80;;;;;;111408;1237;44454;-62
2023/06/29 08:43:41;;;;;;;;;5.25;4.25;26.00;50.90;;;;;;111386;1243;49256;-64
2023/06/29 08:46:08;;;;;;;;;5.75;5.75;26.00;50.90;;;;;;111453;1237;48911;-61
2023/06/29 08:48:36;;;;;;;;;7.25;5.75;26.10;50.90;;;;;;111465;1242;54801;-60
2023/06/29 08:51:07;;;;;;;;;6.50;6.00;26.10;50.80;;;;;;111469;1242;45049;-60
2023/06/29 08:53:34;;;;;;;;;5.75;5.75;26.10;50.80;;;;;;111429;1237;49175;-62
2023/06/29 08:56:02;;;;;;;;;6.00;6.00;26.10;50.80;;;;;;111126;1241;49058;-62
2023/06/29 08:58:29;;;;;;;;;6.25;6.00;26.10;50.80;;;;;;111402;1244;53325;-61
2023/06/29 09:00:57;;;;;;;;;5.00;5.00;26.10;50.70;;;;;;111336;1238;44877;-62
2023/06/29 09:03:26;;;;;;;;;6.75;6.25;26.10;50.70;;;;;;111501;1243;49074;-62
2023/06/29 09:05:55;;;;;;;;;5.00;4.25;26.10;50.70;;;;;;111496;1237;49057;-62
2023/06/29 09:08:26;;;;;;;;;5.00;5.00;26.10;50.90;;;;;;111497;1242;54981;-61
2023/06/29 09:10:54;;;;;;;;;5.00;5.00;26.10;50.70;;;;;;111330;1241;44752;-62
2023/06/29 09:13:26;;;;;;;;;5.00;5.00;26.10;50.80;;;;;;111322;1243;48505;-62
2023/06/29 09:15:54;;;;;;;;;5.50;5.00;26.10;50.60;;;;;;111395;1242;48700;-62
2023/06/29 09:18:23;;;;;;;;;6.75;5.75;26.10;51.00;;;;;;111262;1240;53344;-62
2023/06/29 09:20:54;;;;;;;;;5.50;5.00;26.10;50.80;;;;;;111435;1237;45284;-62
2023/06/29 09:23:23;;;;;;;;;6.00;5.00;26.10;51.10;;;;;;111432;1237;49923;-62
2023/06/29 09:25:53;;;;;;;;;6.00;5.00;26.10;50.60;;;;;;111355;1241;49319;-62
2023/06/29 09:28:20;;;;;;;;;6.00;5.00;26.10;50.60;;;;;;111478;1238;53536;-63
2023/06/29 09:30:49;;;;;;;;;7.00;6.00;26.20;50.60;;;;;;111417;1237;44885;-62
2023/06/29 09:33:16;;;;;;;;;5.00;5.00;26.20;50.60;;;;;;111533;1242;48365;-62
2023/06/29 09:35:45;;;;;;;;;5.75;5.00;26.20;50.60;;;;;;111471;1242;49355;-62
2023/06/29 09:38:15;;;;;;;;;6.00;5.00;26.20;50.80;;;;;;111442;1241;54006;-61
2023/06/29 09:40:46;;;;;;;;;6.75;5.75;26.20;50.60;;;;;;111436;1238;45109;-63
2023/06/29 09:43:21;;;;;;;;;6.00;5.00;26.20;50.60;;;;;;111321;1238;49999;-62
2023/06/29 09:45:48;;;;;;;;;6.00;5.25;26.20;50.60;;;;;;111431;1242;49225;-62
2023/06/29 09:48:15;;;;;;;;;5.25;5.00;26.20;50.60;;;;;;111528;1242;53528;-61
2023/06/29 09:50:51;;;;;;;;;5.75;5.00;26.20;50.60;;;;;;111453;1238;45593;-62
2023/06/29 09:53:28;;;;;;;;;7.00;6.00;26.20;50.60;;;;;;111489;1237;48579;-62
2023/06/29 09:55:57;;;;;;;;;5.00;4.00;26.30;50.60;;;;;;111584;1242;49209;-62
2023/06/29 09:58:29;;;;;;;;;5.00;5.00;26.30;51.00;;;;;;111511;1238;54189;-62
2023/06/29 10:00:59;;;;;;;;;6.67;5.67;26.30;50.50;;;;;;111503;1242;44783;-63
2023/06/29 10:03:27;;;;;;;;;5.00;4.25;26.30;50.50;;;;;;111540;1237;48961;-61
2023/06/29 10:05:57;;;;;;;;;6.00;6.00;26.40;50.60;;;;;;111550;1243;48907;-61
2023/06/29 10:08:27;;;;;;;;;5.25;4.75;26.30;50.60;;;;;;111521;1237;53847;-61
2023/06/29 10:10:56;;;;;;;;;6.00;5.00;26.30;50.50;;;;;;111518;1241;44598;-61
2023/06/29 10:13:24;;;;;;;;;5.33;5.00;26.30;50.50;;;;;;111492;1237;48700;-62
2023/06/29 10:15:52;;;;;;;;;6.75;5.00;26.30;50.50;;;;;;111305;1241;48563;-62
2023/06/29 10:18:27;;;;;;;;;6.75;5.75;26.30;50.50;;;;;;111333;1243;53459;-66
2023/06/29 10:20:53;;;;;;;;;6.50;6.00;26.30;50.70;;;;;;111555;1238;44996;-62
2023/06/29 10:23:22;;;;;;;;;8.00;6.00;26.40;50.50;;;;;;111540;1238;48972;-61
2023/06/29 10:25:50;;;;;;;;;5.00;4.25;26.40;50.50;;;;;;111317;1240;49433;-62
2023/06/29 10:28:18;;;;;;;;;5.50;4.50;26.40;50.50;;;;;;111379;1242;54465;-61
2023/06/29 10:30:50;;;;;;;;;6.25;5.25;26.40;50.50;;;;;;111297;1242;44765;-61
2023/06/29 10:33:22;;;;;;;;;5.50;4.50;26.40;50.70;;;;;;111507;1242;48479;-61
2023/06/29 10:35:57;;;;;;;;;6.75;5.75;26.40;50.10;;;;;;111551;1243;48879;-61
2023/06/29 10:38:32;;;;;;;;;5.25;4.75;26.40;50.50;;;;;;111520;1237;53703;-62
2023/06/29 10:40:59;;;;;;;;;6.25;5.25;26.40;50.50;;;;;;111436;1238;44412;-63
2023/06/29 10:43:27;;;;;;;;;5.00;4.00;26.40;50.50;;;;;;111493;1243;48976;-61
2023/06/29 10:45:54;;;;;;;;;5.25;5.00;26.40;50.60;;;;;;111512;1242;50178;-63
2023/06/29 10:48:21;;;;;;;;;6.75;5.75;26.40;50.60;;;;;;111474;1242;53915;-62
2023/06/29 10:50:50;;;;;;;;;5.00;5.00;26.40;50.60;;;;;;111474;1237;45098;-62
2023/06/29 10:53:17;;;;;;;;;5.33;5.00;26.40;50.60;;;;;;111490;1238;48481;-61
2023/06/29 10:55:52;;;;;;;;;6.00;5.00;26.40;50.60;;;;;;111457;1237;49600;-62
2023/06/29 10:58:19;;;;;;;;;6.00;5.75;26.40;50.60;;;;;;111546;1237;54420;-62
2023/06/29 11:00:47;;;;;;;;;5.00;4.25;26.50;50.60;;;;;;111568;1238;45019;-62
2023/06/29 11:03:15;;;;;;;;;5.00;4.33;26.50;50.80;;;;;;111645;1242;49136;-62
2023/06/29 11:05:43;;;;;;;;;6.00;5.00;26.50;50.60;;;;;;111426;1241;49152;-61
2023/06/29 11:08:10;;;;;;;;;6.00;5.00;26.50;50.70;;;;;;111587;1237;54108;-61
2023/06/29 11:10:37;;;;;;;;;6.25;6.25;26.50;50.60;;;;;;111559;1237;44279;-62
2023/06/29 11:13:11;;;;;;;;;6.75;6.00;26.50;50.60;;;;;;111490;1237;49021;-62
2023/06/29 11:15:38;;;;;;;;;5.00;5.00;26.50;50.60;;;;;;111543;1242;49084;-62
2023/06/29 11:18:07;;;;;;;;;6.00;5.00;26.50;50.80;;;;;;111504;1238;53857;-61
2023/06/29 11:20:38;;;;;;;;;6.00;5.75;26.50;50.60;;;;;;111468;1242;44387;-63
2023/06/29 11:23:07;;;;;;;;;6.33;6.00;26.50;50.60;;;;;;111495;1243;49336;-63
2023/06/29 11:25:36;;;;;;;;;5.00;4.00;26.50;50.60;;;;;;111501;1243;48808;-61
2023/06/29 11:28:03;;;;;;;;;6.00;5.00;26.50;50.80;;;;;;111491;1237;54140;-60
2023/06/29 11:30:31;;;;;;;;;6.75;5.75;26.50;50.60;;;;;;111487;1237;44357;-61
2023/06/29 11:33:01;;;;;;;;;6.25;5.25;26.50;50.60;;;;;;111321;1241;49533;-61
2023/06/29 11:35:27;;;;;;;;;7.67;6.67;26.50;50.60;;;;;;111414;1238;49287;-62
2023/06/29 11:38:01;;;;;;;;;6.00;5.50;26.50;50.60;;;;;;111477;1238;54371;-61
2023/06/29 11:40:29;;;;;;;;;8.25;6.00;26.50;50.60;;;;;;111288;1240;45163;-62
2023/06/29 11:42:56;;;;;;;;;7.33;6.67;26.50;50.60;;;;;;111404;1238;48638;-61
2023/06/29 11:45:23;;;;;;;;;6.00;5.00;26.50;50.60;;;;;;111491;1238;50023;-62
2023/06/29 11:47:54;;;;;;;;;6.00;5.00;26.50;50.60;;;;;;111520;1237;53944;-64
2023/06/29 11:50:23;;;;;;;;;6.75;5.75;26.50;50.60;;;;;;111512;1237;44227;-63
2023/06/29 11:52:50;;;;;;;;;6.00;6.00;26.50;50.60;;;;;;111424;1242;49629;-62
2023/06/29 11:55:17;;;;;;;;;4.50;4.00;26.50;50.60;;;;;;111479;1239;50856;-62
2023/06/29 11:57:50;;;;;;;;;6.25;5.25;26.50;50.60;;;;;;111486;1238;53130;-62
2023/06/29 12:00:17;;;;;;;;;6.00;5.00;26.50;50.80;;;;;;111329;1243;45123;-61
2023/06/29 12:02:44;;;;;;;;;6.00;5.00;26.50;50.60;;;;;;111483;1238;48682;-61
2023/06/29 12:05:11;;;;;;;;;6.00;5.00;26.50;50.80;;;;;;111534;1242;49257;-62
2023/06/29 12:07:40;;;;;;;;;6.00;5.00;26.50;50.70;;;;;;111509;1243;54598;-60
2023/06/29 12:10:16;;;;;;;;;6.00;5.00;26.50;50.60;;;;;;111524;1237;44846;-63
2023/06/29 12:12:48;;;;;;;;;7.00;6.00;26.50;50.70;;;;;;111409;1237;49341;-61
2023/06/29 12:15:21;;;;;;;;;6.75;6.00;26.50;50.80;;;;;;111551;1243;48786;-62
2023/06/29 12:17:50;;;;;;;;;6.00;5.00;26.50;50.80;;;;;;111520;1244;54043;-61
2023/06/29 12:20:19;;;;;;;;;6.75;6.00;26.50;50.80;;;;;;111542;1238;45052;-62
2023/06/29 12:22:47;;;;;;;;;5.00;5.00;26.50;50.60;;;;;;111523;1243;49175;-62
2023/06/29 12:25:16;;;;;;;;;6.75;6.00;26.50;50.60;;;;;;111427;1238;49247;-62
2023/06/29 12:27:45;;;;;;;;;7.50;6.00;26.50;50.70;;;;;;111484;1238;54481;-61
2023/06/29 12:30:20;;;;;;;;;7.75;6.75;26.50;50.70;;;;;;111509;1237;44548;-62
2023/06/29 12:32:49;;;;;;;;;6.00;5.00;26.50;50.60;;;;;;111478;1242;48930;-61
2023/06/29 12:35:17;;;;;;;;;6.00;5.00;26.60;50.70;;;;;;111566;1238;49028;-61
2023/06/29 12:37:47;;;;;;;;;6.33;5.33;26.50;50.70;;;;;;111471;1237;54463;-61
2023/06/29 12:40:15;;;;;;;;;7.00;6.00;26.50;50.90;;;;;;111518;1238;44336;-62